sensor_id;sensor_type;location;lat;lon;timestamp;temperature;humidity
74934;DHT22;63499;53.232;7.492;2022-12-10T02:01:32;-1.90;99.90
74934;DHT22;63499;53.232;7.492;2022-12-10T02:09:42;-1.80;99.90
74934;DHT22;63499;53.232;7.492;2022-12-10T02:14:33;-1.80;99.90
74934;DHT22;63499;53.232;7.492;2022-12-10T02:17:13;-1.80;99.90
74934;DHT22;63499;53.232;7.492;2022-12-10T02:22:28;-1.80;99.90
74934;DHT22;63499;53.232;7.492;2022-12-10T02:24:57;-1.80;99.90
74934;DHT22;63499;53.232;7.492;2022-12-10T02:29:59;-1.80;99.90
74934;DHT22;63499;53.232;7.492;2022-12-10T02:32:30;-1.80;99.90
74934;DHT22;63499;53.232;7.492;2022-12-10T02:35:00;-1.80;99.90
74934;DHT22;63499;53.232;7.492;2022-12-10T02:37:38;-1.80;99.90
74934;DHT22;63499;53.232;7.492;2022-12-10T02:40:06;-1.80;99.90
74934;DHT22;63499;53.232;7.492;2022-12-10T02:42:38;-1.80;99.90
74934;DHT22;63499;53.232;7.492;2022-12-10T02:45:06;-1.80;99.90
74934;DHT22;63499;53.232;7.492;2022-12-10T02:47:34;-1.80;99.90
74934;DHT22;63499;53.232;7.492;2022-12-10T02:50:02;-1.80;99.90
74934;DHT22;63499;53.232;7.492;2022-12-10T02:52:28;-1.90;99.90
74934;DHT22;63499;53.232;7.492;2022-12-10T02:54:55;-1.90;99.90
74934;DHT22;63499;53.232;7.492;2022-12-10T03:05:02;-1.80;99.90
74934;DHT22;63499;53.232;7.492;2022-12-10T03:07:34;-1.80;99.90
74934;DHT22;63499;53.232;7.492;2022-12-10T03:10:03;-1.90;99.90
74934;DHT22;63499;53.232;7.492;2022-12-10T03:12:35;-1.80;99.90
74934;DHT22;63499;53.232;7.492;2022-12-10T03:15:02;-1.80;99.90
74934;DHT22;63499;53.232;7.492;2022-12-10T03:17:29;-1.80;99.90
74934;DHT22;63499;53.232;7.492;2022-12-10T03:19:56;-1.80;99.90
74934;DHT22;63499;53.232;7.492;2022-12-10T03:22:23;-1.70;99.90
74934;DHT22;63499;53.232;7.492;2022-12-10T03:24:50;-1.70;99.90
74934;DHT22;63499;53.232;7.492;2022-12-10T03:27:17;-1.70;99.90
74934;DHT22;63499;53.232;7.492;2022-12-10T03:29:49;-1.70;99.90
74934;DHT22;63499;53.232;7.492;2022-12-10T03:32:16;-1.60;99.90
74934;DHT22;63499;53.232;7.492;2022-12-10T03:34:43;-1.60;99.90
74934;DHT22;63499;53.232;7.492;2022-12-10T03:37:09;-1.60;99.90
74934;DHT22;63499;53.232;7.492;2022-12-10T03:39:36;-1.60;99.90
74934;DHT22;63499;53.232;7.492;2022-12-10T03:42:03;-1.70;99.90
74934;DHT22;63499;53.232;7.492;2022-12-10T03:44:31;-1.70;99.90
74934;DHT22;63499;53.232;7.492;2022-12-10T03:46:57;-1.70;99.90
74934;DHT22;63499;53.232;7.492;2022-12-10T03:49:24;-1.70;99.90
74934;DHT22;63499;53.232;7.492;2022-12-10T03:51:51;-1.70;99.90
74934;DHT22;63499;53.232;7.492;2022-12-10T03:54:18;-1.60;99.90
74934;DHT22;63499;53.232;7.492;2022-12-10T03:56:45;-1.70;99.90
74934;DHT22;63499;53.232;7.492;2022-12-10T03:59:11;-1.70;99.90
74934;DHT22;63499;53.232;7.492;2022-12-10T04:01:37;-1.70;99.90
74934;DHT22;63499;53.232;7.492;2022-12-10T04:04:04;-1.70;99.90
74934;DHT22;63499;53.232;7.492;2022-12-10T04:06:30;-1.70;99.90
74934;DHT22;63499;53.232;7.492;2022-12-10T04:08:57;-1.70;99.90
74934;DHT22;63499;53.232;7.492;2022-12-10T04:11:23;-1.70;99.90
74934;DHT22;63499;53.232;7.492;2022-12-10T04:13:50;-1.80;99.90
74934;DHT22;63499;53.232;7.492;2022-12-10T04:16:35;-1.70;99.90
74934;DHT22;63499;53.232;7.492;2022-12-10T04:19:06;-1.70;99.90
74934;DHT22;63499;53.232;7.492;2022-12-10T04:21:33;-1.80;99.90
74934;DHT22;63499;53.232;7.492;2022-12-10T04:24:20;-1.70;99.90
74934;DHT22;63499;53.232;7.492;2022-12-10T04:27:10;-1.80;99.90
74934;DHT22;63499;53.232;7.492;2022-12-10T04:29:36;-1.80;99.90
74934;DHT22;63499;53.232;7.492;2022-12-10T04:32:02;-1.80;99.90
74934;DHT22;63499;53.232;7.492;2022-12-10T04:34:29;-1.80;99.90
74934;DHT22;63499;53.232;7.492;2022-12-10T04:36:56;-1.80;99.90
74934;DHT22;63499;53.232;7.492;2022-12-10T04:39:22;-1.80;99.90
74934;DHT22;63499;53.232;7.492;2022-12-10T04:41:49;-1.90;99.90
74934;DHT22;63499;53.232;7.492;2022-12-10T04:44:15;-1.90;99.90
74934;DHT22;63499;53.232;7.492;2022-12-10T04:46:41;-1.90;99.90
74934;DHT22;63499;53.232;7.492;2022-12-10T04:49:08;-1.90;99.90
74934;DHT22;63499;53.232;7.492;2022-12-10T04:51:34;-1.90;99.90
74934;DHT22;63499;53.232;7.492;2022-12-10T04:54:01;-1.90;99.90
74934;DHT22;63499;53.232;7.492;2022-12-10T04:56:27;-1.90;99.90
74934;DHT22;63499;53.232;7.492;2022-12-10T04:58:54;-1.90;99.90
74934;DHT22;63499;53.232;7.492;2022-12-10T05:01:20;-2.00;99.90
74934;DHT22;63499;53.232;7.492;2022-12-10T05:03:46;-2.00;99.90
74934;DHT22;63499;53.232;7.492;2022-12-10T05:06:13;-2.00;99.90
74934;DHT22;63499;53.232;7.492;2022-12-10T05:08:40;-1.90;99.90
74934;DHT22;63499;53.232;7.492;2022-12-10T05:11:07;-1.90;99.90
74934;DHT22;63499;53.232;7.492;2022-12-10T05:13:35;-1.90;99.90
74934;DHT22;63499;53.232;7.492;2022-12-10T05:16:02;-2.00;99.90
74934;DHT22;63499;53.232;7.492;2022-12-10T05:18:28;-2.00;99.90
74934;DHT22;63499;53.232;7.492;2022-12-10T05:20:59;-1.90;99.90
74934;DHT22;63499;53.232;7.492;2022-12-10T05:23:25;-1.90;99.90
74934;DHT22;63499;53.232;7.492;2022-12-10T05:26:14;-1.90;99.90
74934;DHT22;63499;53.232;7.492;2022-12-10T05:28:48;-1.90;99.90
74934;DHT22;63499;53.232;7.492;2022-12-10T05:31:16;-1.90;99.90
74934;DHT22;63499;53.232;7.492;2022-12-10T05:33:42;-1.80;99.90
74934;DHT22;63499;53.232;7.492;2022-12-10T05:36:09;-1.80;99.90
74934;DHT22;63499;53.232;7.492;2022-12-10T05:38:38;-1.80;99.90
74934;DHT22;63499;53.232;7.492;2022-12-10T05:41:05;-1.70;99.90
74934;DHT22;63499;53.232;7.492;2022-12-10T05:43:32;-1.70;99.90
74934;DHT22;63499;53.232;7.492;2022-12-10T05:45:59;-1.70;99.90
74934;DHT22;63499;53.232;7.492;2022-12-10T05:48:25;-1.60;99.90
74934;DHT22;63499;53.232;7.492;2022-12-10T05:50:51;-1.60;99.90
74934;DHT22;63499;53.232;7.492;2022-12-10T05:53:17;-1.60;99.90
74934;DHT22;63499;53.232;7.492;2022-12-10T05:55:43;-1.50;99.90
74934;DHT22;63499;53.232;7.492;2022-12-10T05:58:10;-1.50;99.90
74934;DHT22;63499;53.232;7.492;2022-12-10T06:00:38;-1.50;99.90
74934;DHT22;63499;53.232;7.492;2022-12-10T06:03:04;-1.40;99.90
74934;DHT22;63499;53.232;7.492;2022-12-10T06:05:35;-1.40;99.90
74934;DHT22;63499;53.232;7.492;2022-12-10T06:08:03;-1.30;99.90
74934;DHT22;63499;53.232;7.492;2022-12-10T06:10:29;-1.30;99.90
74934;DHT22;63499;53.232;7.492;2022-12-10T06:12:55;-1.30;99.90
74934;DHT22;63499;53.232;7.492;2022-12-10T06:15:22;-1.20;99.90
74934;DHT22;63499;53.232;7.492;2022-12-10T06:17:48;-1.20;99.90
74934;DHT22;63499;53.232;7.492;2022-12-10T06:20:14;-1.20;99.90
74934;DHT22;63499;53.232;7.492;2022-12-10T06:22:41;-1.20;99.90
74934;DHT22;63499;53.232;7.492;2022-12-10T06:25:07;-1.20;99.90
74934;DHT22;63499;53.232;7.492;2022-12-10T06:27:33;-1.20;99.90
74934;DHT22;63499;53.232;7.492;2022-12-10T06:29:59;-1.20;99.90
74934;DHT22;63499;53.232;7.492;2022-12-10T06:32:25;-1.20;99.90
74934;DHT22;63499;53.232;7.492;2022-12-10T06:34:52;-1.20;99.90
74934;DHT22;63499;53.232;7.492;2022-12-10T06:37:18;-1.10;99.90
74934;DHT22;63499;53.232;7.492;2022-12-10T06:39:44;-1.10;99.90
74934;DHT22;63499;53.232;7.492;2022-12-10T06:42:10;-1.10;99.90
74934;DHT22;63499;53.232;7.492;2022-12-10T06:44:36;-1.10;99.90
74934;DHT22;63499;53.232;7.492;2022-12-10T06:47:02;-1.10;99.90
74934;DHT22;63499;53.232;7.492;2022-12-10T06:49:28;-1.10;99.90
74934;DHT22;63499;53.232;7.492;2022-12-10T06:51:54;-1.10;99.90
74934;DHT22;63499;53.232;7.492;2022-12-10T06:54:20;-1.10;99.90
74934;DHT22;63499;53.232;7.492;2022-12-10T06:56:46;-1.00;99.90
74934;DHT22;63499;53.232;7.492;2022-12-10T06:59:12;-1.00;99.90
74934;DHT22;63499;53.232;7.492;2022-12-10T07:01:38;-1.00;99.90
74934;DHT22;63499;53.232;7.492;2022-12-10T07:04:05;-1.00;99.90
74934;DHT22;63499;53.232;7.492;2022-12-10T07:06:31;-1.00;99.90
74934;DHT22;63499;53.232;7.492;2022-12-10T07:08:57;-1.00;99.90
74934;DHT22;63499;53.232;7.492;2022-12-10T07:11:24;-1.00;99.90
74934;DHT22;63499;53.232;7.492;2022-12-10T07:13:51;-1.00;99.90
74934;DHT22;63499;53.232;7.492;2022-12-10T07:16:21;-1.00;99.90
74934;DHT22;63499;53.232;7.492;2022-12-10T07:18:47;-1.00;99.90
74934;DHT22;63499;53.232;7.492;2022-12-10T07:21:15;-1.00;99.90
74934;DHT22;63499;53.232;7.492;2022-12-10T07:23:41;-0.90;99.90
74934;DHT22;63499;53.232;7.492;2022-12-10T07:26:07;-1.00;99.90
74934;DHT22;63499;53.232;7.492;2022-12-10T07:28:33;-1.00;99.90
74934;DHT22;63499;53.232;7.492;2022-12-10T07:31:01;-1.00;99.90
74934;DHT22;63499;53.232;7.492;2022-12-10T07:33:27;-0.90;99.90
74934;DHT22;63499;53.232;7.492;2022-12-10T07:35:53;-0.90;99.90
74934;DHT22;63499;53.232;7.492;2022-12-10T07:38:19;-0.90;99.90
74934;DHT22;63499;53.232;7.492;2022-12-10T07:40:45;-0.90;99.90
74934;DHT22;63499;53.232;7.492;2022-12-10T07:43:12;-0.90;99.90
74934;DHT22;63499;53.232;7.492;2022-12-10T07:45:38;-0.90;99.90
74934;DHT22;63499;53.232;7.492;2022-12-10T07:48:04;-0.90;99.90
74934;DHT22;63499;53.232;7.492;2022-12-10T07:50:30;-0.90;99.90
74934;DHT22;63499;53.232;7.492;2022-12-10T07:52:57;-0.80;99.90
74934;DHT22;63499;53.232;7.492;2022-12-10T07:55:23;-0.80;99.90
74934;DHT22;63499;53.232;7.492;2022-12-10T07:57:49;-0.80;99.90
74934;DHT22;63499;53.232;7.492;2022-12-10T08:00:15;-0.80;99.90
74934;DHT22;63499;53.232;7.492;2022-12-10T08:02:42;-0.80;99.90
74934;DHT22;63499;53.232;7.492;2022-12-10T08:05:09;-0.80;99.90
74934;DHT22;63499;53.232;7.492;2022-12-10T08:07:35;-0.80;99.90
74934;DHT22;63499;53.232;7.492;2022-12-10T08:10:01;-0.80;99.90
74934;DHT22;63499;53.232;7.492;2022-12-10T08:12:28;-0.80;99.90
74934;DHT22;63499;53.232;7.492;2022-12-10T08:14:55;-0.80;99.90
74934;DHT22;63499;53.232;7.492;2022-12-10T08:17:21;-0.80;99.90
74934;DHT22;63499;53.232;7.492;2022-12-10T08:19:47;-0.70;99.90
74934;DHT22;63499;53.232;7.492;2022-12-10T08:22:14;-0.70;99.90
74934;DHT22;63499;53.232;7.492;2022-12-10T08:24:40;-0.70;99.90
74934;DHT22;63499;53.232;7.492;2022-12-10T08:27:06;-0.70;99.90
74934;DHT22;63499;53.232;7.492;2022-12-10T08:29:35;-0.70;99.90
74934;DHT22;63499;53.232;7.492;2022-12-10T08:32:04;-0.60;99.90
74934;DHT22;63499;53.232;7.492;2022-12-10T08:34:30;-0.60;99.90
74934;DHT22;63499;53.232;7.492;2022-12-10T08:36:56;-0.60;99.90
74934;DHT22;63499;53.232;7.492;2022-12-10T08:39:22;-0.60;99.90
74934;DHT22;63499;53.232;7.492;2022-12-10T08:41:48;-0.60;99.90
74934;DHT22;63499;53.232;7.492;2022-12-10T08:44:14;-0.60;99.90
74934;DHT22;63499;53.232;7.492;2022-12-10T08:46:41;-0.60;99.90
74934;DHT22;63499;53.232;7.492;2022-12-10T08:49:07;-0.50;99.90
74934;DHT22;63499;53.232;7.492;2022-12-10T08:51:33;-0.50;99.90
74934;DHT22;63499;53.232;7.492;2022-12-10T08:54:00;-0.50;99.90
74934;DHT22;63499;53.232;7.492;2022-12-10T08:56:26;-0.50;99.90
74934;DHT22;63499;53.232;7.492;2022-12-10T08:58:52;-0.50;99.90
74934;DHT22;63499;53.232;7.492;2022-12-10T09:01:18;-0.50;99.90
74934;DHT22;63499;53.232;7.492;2022-12-10T09:03:45;-0.50;99.90
74934;DHT22;63499;53.232;7.492;2022-12-10T09:06:13;-0.50;99.90
74934;DHT22;63499;53.232;7.492;2022-12-10T09:08:39;-0.50;99.90
74934;DHT22;63499;53.232;7.492;2022-12-10T09:13:32;-0.60;99.90
74934;DHT22;63499;53.232;7.492;2022-12-10T09:15:58;-0.60;99.90
74934;DHT22;63499;53.232;7.492;2022-12-10T09:18:24;-0.60;99.90
74934;DHT22;63499;53.232;7.492;2022-12-10T09:20:50;-0.60;99.90
74934;DHT22;63499;53.232;7.492;2022-12-10T09:23:16;-0.50;99.90
74934;DHT22;63499;53.232;7.492;2022-12-10T09:25:45;-0.50;99.90
74934;DHT22;63499;53.232;7.492;2022-12-10T09:28:11;-0.50;99.90
74934;DHT22;63499;53.232;7.492;2022-12-10T09:30:37;-0.50;99.90
74934;DHT22;63499;53.232;7.492;2022-12-10T09:33:04;-0.50;99.90
74934;DHT22;63499;53.232;7.492;2022-12-10T09:35:30;-0.40;99.90
74934;DHT22;63499;53.232;7.492;2022-12-10T09:37:57;-0.40;99.90
74934;DHT22;63499;53.232;7.492;2022-12-10T09:40:35;-0.30;99.90
74934;DHT22;63499;53.232;7.492;2022-12-10T09:43:04;-0.30;99.90
74934;DHT22;63499;53.232;7.492;2022-12-10T09:45:37;-0.30;99.90
74934;DHT22;63499;53.232;7.492;2022-12-10T09:50:37;-0.20;99.90
74934;DHT22;63499;53.232;7.492;2022-12-10T09:53:08;-0.10;99.90
74934;DHT22;63499;53.232;7.492;2022-12-10T09:55:38;-0.10;99.90
74934;DHT22;63499;53.232;7.492;2022-12-10T09:58:06;0.00;99.90
74934;DHT22;63499;53.232;7.492;2022-12-10T10:00:39;0.00;99.90
74934;DHT22;63499;53.232;7.492;2022-12-10T10:03:05;0.00;99.90
74934;DHT22;63499;53.232;7.492;2022-12-10T10:05:35;0.00;99.90
74934;DHT22;63499;53.232;7.492;2022-12-10T10:08:02;0.10;99.90
74934;DHT22;63499;53.232;7.492;2022-12-10T10:10:30;0.10;99.90
74934;DHT22;63499;53.232;7.492;2022-12-10T10:12:58;0.10;99.90
74934;DHT22;63499;53.232;7.492;2022-12-10T10:15:33;0.20;99.90
74934;DHT22;63499;53.232;7.492;2022-12-10T10:18:02;0.30;99.90
74934;DHT22;63499;53.232;7.492;2022-12-10T10:20:30;0.30;99.90
74934;DHT22;63499;53.232;7.492;2022-12-10T10:22:56;0.40;99.90
74934;DHT22;63499;53.232;7.492;2022-12-10T10:25:23;0.40;99.90
74934;DHT22;63499;53.232;7.492;2022-12-10T10:27:49;0.60;99.90
74934;DHT22;63499;53.232;7.492;2022-12-10T10:30:17;0.60;99.90
74934;DHT22;63499;53.232;7.492;2022-12-10T10:32:45;0.70;99.90
74934;DHT22;63499;53.232;7.492;2022-12-10T10:35:48;0.70;99.90
74934;DHT22;63499;53.232;7.492;2022-12-10T10:38:06;0.80;99.90
74934;DHT22;63499;53.232;7.492;2022-12-10T10:40:40;0.90;99.90
74934;DHT22;63499;53.232;7.492;2022-12-10T10:43:18;0.80;99.90
74934;DHT22;63499;53.232;7.492;2022-12-10T10:45:52;0.90;99.90
74934;DHT22;63499;53.232;7.492;2022-12-10T10:48:21;0.90;99.90
74934;DHT22;63499;53.232;7.492;2022-12-10T10:55:49;0.80;99.90
74934;DHT22;63499;53.232;7.492;2022-12-10T10:58:17;0.80;99.90
74934;DHT22;63499;53.232;7.492;2022-12-10T11:00:52;0.80;99.90
74934;DHT22;63499;53.232;7.492;2022-12-10T11:03:18;0.70;99.90
74934;DHT22;63499;53.232;7.492;2022-12-10T11:05:46;0.70;99.90
74934;DHT22;63499;53.232;7.492;2022-12-10T11:08:18;0.70;99.90
74934;DHT22;63499;53.232;7.492;2022-12-10T11:10:50;0.70;99.90
74934;DHT22;63499;53.232;7.492;2022-12-10T11:13:23;0.80;99.90
74934;DHT22;63499;53.232;7.492;2022-12-10T11:20:59;0.90;99.90
74934;DHT22;63499;53.232;7.492;2022-12-10T11:23:30;0.90;99.90
74934;DHT22;63499;53.232;7.492;2022-12-10T11:26:11;1.00;99.90
74934;DHT22;63499;53.232;7.492;2022-12-10T11:33:46;1.00;99.90
74934;DHT22;63499;53.232;7.492;2022-12-10T11:54:45;1.20;99.90
74934;DHT22;63499;53.232;7.492;2022-12-10T12:08:09;1.50;99.90
74934;DHT22;63499;53.232;7.492;2022-12-10T12:12:59;1.50;99.90
74934;DHT22;63499;53.232;7.492;2022-12-10T12:15:30;1.40;99.90
74934;DHT22;63499;53.232;7.492;2022-12-10T12:17:59;1.40;99.90
74934;DHT22;63499;53.232;7.492;2022-12-10T12:21:01;1.40;99.90
74934;DHT22;63499;53.232;7.492;2022-12-10T12:23:28;1.40;99.90
74934;DHT22;63499;53.232;7.492;2022-12-10T12:25:57;1.40;99.90
74934;DHT22;63499;53.232;7.492;2022-12-10T12:28:31;1.40;99.90
74934;DHT22;63499;53.232;7.492;2022-12-10T12:31:00;1.40;99.90
74934;DHT22;63499;53.232;7.492;2022-12-10T12:35:58;1.40;99.90
74934;DHT22;63499;53.232;7.492;2022-12-10T12:38:51;1.40;99.90
74934;DHT22;63499;53.232;7.492;2022-12-10T12:41:17;1.50;99.90
74934;DHT22;63499;53.232;7.492;2022-12-10T12:43:49;1.70;99.90
74934;DHT22;63499;53.232;7.492;2022-12-10T12:46:25;1.90;99.90
74934;DHT22;63499;53.232;7.492;2022-12-10T12:54:32;1.90;99.90
74934;DHT22;63499;53.232;7.492;2022-12-10T12:59:45;1.90;99.90
74934;DHT22;63499;53.232;7.492;2022-12-10T13:02:20;1.90;99.90
74934;DHT22;63499;53.232;7.492;2022-12-10T13:04:47;1.80;99.90
74934;DHT22;63499;53.232;7.492;2022-12-10T13:09:45;1.70;99.90
74934;DHT22;63499;53.232;7.492;2022-12-10T13:12:17;1.60;99.90
74934;DHT22;63499;53.232;7.492;2022-12-10T13:14:54;1.70;99.90
74934;DHT22;63499;53.232;7.492;2022-12-10T13:17:31;1.60;99.90
74934;DHT22;63499;53.232;7.492;2022-12-10T13:22:53;1.60;99.90
74934;DHT22;63499;53.232;7.492;2022-12-10T13:25:21;1.60;99.90
74934;DHT22;63499;53.232;7.492;2022-12-10T13:28:15;1.60;99.90
74934;DHT22;63499;53.232;7.492;2022-12-10T13:30:42;1.70;99.90
74934;DHT22;63499;53.232;7.492;2022-12-10T13:33:16;1.80;99.90
74934;DHT22;63499;53.232;7.492;2022-12-10T13:36:04;1.80;99.90
74934;DHT22;63499;53.232;7.492;2022-12-10T13:38:29;1.80;99.90
74934;DHT22;63499;53.232;7.492;2022-12-10T13:40:57;1.80;99.90
74934;DHT22;63499;53.232;7.492;2022-12-10T13:43:41;1.70;99.90
74934;DHT22;63499;53.232;7.492;2022-12-10T13:48:56;1.40;99.90
74934;DHT22;63499;53.232;7.492;2022-12-10T13:56:41;1.30;99.90
74934;DHT22;63499;53.232;7.492;2022-12-10T14:01:42;1.30;99.90
74934;DHT22;63499;53.232;7.492;2022-12-10T14:04:18;1.30;99.90
74934;DHT22;63499;53.232;7.492;2022-12-10T14:06:47;1.30;99.90
74934;DHT22;63499;53.232;7.492;2022-12-10T14:09:21;1.30;99.90
74934;DHT22;63499;53.232;7.492;2022-12-10T14:12:00;1.30;99.90
74934;DHT22;63499;53.232;7.492;2022-12-10T14:14:32;1.30;99.90
74934;DHT22;63499;53.232;7.492;2022-12-10T14:16:59;1.30;99.90
74934;DHT22;63499;53.232;7.492;2022-12-10T14:19:26;1.30;99.90
74934;DHT22;63499;53.232;7.492;2022-12-10T14:21:52;1.20;99.90
74934;DHT22;63499;53.232;7.492;2022-12-10T14:29:37;1.20;99.90
74934;DHT22;63499;53.232;7.492;2022-12-10T14:32:03;1.20;99.90
74934;DHT22;63499;53.232;7.492;2022-12-10T14:34:31;1.20;99.90
74934;DHT22;63499;53.232;7.492;2022-12-10T14:36:57;1.20;99.90
74934;DHT22;63499;53.232;7.492;2022-12-10T14:39:28;1.20;99.90
74934;DHT22;63499;53.232;7.492;2022-12-10T14:41:55;1.20;99.90
74934;DHT22;63499;53.232;7.492;2022-12-10T14:44:22;1.20;99.90
74934;DHT22;63499;53.232;7.492;2022-12-10T14:46:49;1.20;99.90
74934;DHT22;63499;53.232;7.492;2022-12-10T14:49:20;1.20;99.90
74934;DHT22;63499;53.232;7.492;2022-12-10T14:51:46;1.20;99.90
74934;DHT22;63499;53.232;7.492;2022-12-10T14:54:23;1.20;99.90
74934;DHT22;63499;53.232;7.492;2022-12-10T14:56:50;1.20;99.90
74934;DHT22;63499;53.232;7.492;2022-12-10T14:59:19;1.20;99.90
74934;DHT22;63499;53.232;7.492;2022-12-10T15:01:48;1.20;99.90
74934;DHT22;63499;53.232;7.492;2022-12-10T15:04:16;1.10;99.90
74934;DHT22;63499;53.232;7.492;2022-12-10T15:06:42;1.10;99.90
74934;DHT22;63499;53.232;7.492;2022-12-10T15:09:14;1.20;99.90
74934;DHT22;63499;53.232;7.492;2022-12-10T15:11:40;1.10;99.90
74934;DHT22;63499;53.232;7.492;2022-12-10T15:14:10;1.10;99.90
74934;DHT22;63499;53.232;7.492;2022-12-10T15:16:43;1.10;99.90
74934;DHT22;63499;53.232;7.492;2022-12-10T15:21:40;1.10;99.90
74934;DHT22;63499;53.232;7.492;2022-12-10T15:24:11;1.10;99.90
74934;DHT22;63499;53.232;7.492;2022-12-10T15:26:41;1.10;99.90
74934;DHT22;63499;53.232;7.492;2022-12-10T15:29:42;1.10;99.90
74934;DHT22;63499;53.232;7.492;2022-12-10T15:32:04;1.10;99.90
74934;DHT22;63499;53.232;7.492;2022-12-10T15:34:34;1.10;99.90
74934;DHT22;63499;53.232;7.492;2022-12-10T15:37:02;1.10;99.90
74934;DHT22;63499;53.232;7.492;2022-12-10T15:39:29;1.10;99.90
74934;DHT22;63499;53.232;7.492;2022-12-10T15:42:00;1.10;99.90
74934;DHT22;63499;53.232;7.492;2022-12-10T15:44:31;1.10;99.90
74934;DHT22;63499;53.232;7.492;2022-12-10T15:47:01;1.10;99.90
74934;DHT22;63499;53.232;7.492;2022-12-10T15:49:29;1.00;99.90
74934;DHT22;63499;53.232;7.492;2022-12-10T15:51:55;1.00;99.90
74934;DHT22;63499;53.232;7.492;2022-12-10T15:54:22;1.00;99.90
74934;DHT22;63499;53.232;7.492;2022-12-10T15:56:49;1.00;99.90
74934;DHT22;63499;53.232;7.492;2022-12-10T15:59:15;1.00;99.90
74934;DHT22;63499;53.232;7.492;2022-12-10T16:01:41;1.00;99.90
74934;DHT22;63499;53.232;7.492;2022-12-10T16:04:08;1.00;99.90
74934;DHT22;63499;53.232;7.492;2022-12-10T16:06:34;1.00;99.90
74934;DHT22;63499;53.232;7.492;2022-12-10T16:09:00;1.00;99.90
74934;DHT22;63499;53.232;7.492;2022-12-10T16:11:26;1.00;99.90
74934;DHT22;63499;53.232;7.492;2022-12-10T16:13:54;1.00;99.90
74934;DHT22;63499;53.232;7.492;2022-12-10T16:16:22;0.90;99.90
74934;DHT22;63499;53.232;7.492;2022-12-10T16:18:49;1.00;99.90
74934;DHT22;63499;53.232;7.492;2022-12-10T16:21:15;0.90;99.90
74934;DHT22;63499;53.232;7.492;2022-12-10T16:23:42;0.90;99.90
74934;DHT22;63499;53.232;7.492;2022-12-10T16:26:15;0.90;99.90
74934;DHT22;63499;53.232;7.492;2022-12-10T16:28:42;0.90;99.90
74934;DHT22;63499;53.232;7.492;2022-12-10T16:31:10;0.90;99.90
74934;DHT22;63499;53.232;7.492;2022-12-10T16:33:36;0.90;99.90
74934;DHT22;63499;53.232;7.492;2022-12-10T16:36:02;0.90;99.90
74934;DHT22;63499;53.232;7.492;2022-12-10T16:38:28;0.90;99.90
74934;DHT22;63499;53.232;7.492;2022-12-10T16:40:54;0.90;99.90
74934;DHT22;63499;53.232;7.492;2022-12-10T16:43:21;0.90;99.90
74934;DHT22;63499;53.232;7.492;2022-12-10T16:45:48;0.90;99.90
74934;DHT22;63499;53.232;7.492;2022-12-10T16:48:14;0.90;99.90
74934;DHT22;63499;53.232;7.492;2022-12-10T16:50:41;0.90;99.90
74934;DHT22;63499;53.232;7.492;2022-12-10T16:53:17;0.90;99.90
74934;DHT22;63499;53.232;7.492;2022-12-10T16:55:45;0.90;99.90
74934;DHT22;63499;53.232;7.492;2022-12-10T16:58:11;0.90;99.90
74934;DHT22;63499;53.232;7.492;2022-12-10T17:00:40;0.90;99.90
74934;DHT22;63499;53.232;7.492;2022-12-10T17:03:09;0.80;99.90
74934;DHT22;63499;53.232;7.492;2022-12-10T17:05:42;0.80;99.90
74934;DHT22;63499;53.232;7.492;2022-12-10T17:08:09;0.80;99.90
74934;DHT22;63499;53.232;7.492;2022-12-10T17:10:35;0.80;99.90
74934;DHT22;63499;53.232;7.492;2022-12-10T17:13:24;0.80;99.90
74934;DHT22;63499;53.232;7.492;2022-12-10T17:15:55;0.70;99.90
74934;DHT22;63499;53.232;7.492;2022-12-10T17:18:21;0.70;99.90
74934;DHT22;63499;53.232;7.492;2022-12-10T17:20:48;0.70;99.90
74934;DHT22;63499;53.232;7.492;2022-12-10T17:23:14;0.70;99.90
74934;DHT22;63499;53.232;7.492;2022-12-10T17:25:40;0.70;99.90
74934;DHT22;63499;53.232;7.492;2022-12-10T17:28:10;0.60;99.90
74934;DHT22;63499;53.232;7.492;2022-12-10T17:30:38;0.60;99.90
74934;DHT22;63499;53.232;7.492;2022-12-10T17:33:04;0.60;99.90
74934;DHT22;63499;53.232;7.492;2022-12-10T17:35:30;0.70;99.90
74934;DHT22;63499;53.232;7.492;2022-12-10T17:37:56;0.70;99.90
74934;DHT22;63499;53.232;7.492;2022-12-10T17:40:22;0.60;99.90
74934;DHT22;63499;53.232;7.492;2022-12-10T17:42:49;0.60;99.90
74934;DHT22;63499;53.232;7.492;2022-12-10T17:45:19;0.70;99.90
74934;DHT22;63499;53.232;7.492;2022-12-10T17:47:45;0.60;99.90
74934;DHT22;63499;53.232;7.492;2022-12-10T17:50:28;0.60;99.90
74934;DHT22;63499;53.232;7.492;2022-12-10T17:52:55;0.60;99.90
74934;DHT22;63499;53.232;7.492;2022-12-10T17:55:24;0.50;99.90
74934;DHT22;63499;53.232;7.492;2022-12-10T17:57:50;0.50;99.90
74934;DHT22;63499;53.232;7.492;2022-12-10T18:00:17;0.60;99.90
74934;DHT22;63499;53.232;7.492;2022-12-10T18:02:50;0.50;99.90
74934;DHT22;63499;53.232;7.492;2022-12-10T18:05:17;0.50;99.90
74934;DHT22;63499;53.232;7.492;2022-12-10T18:07:43;0.50;99.90
74934;DHT22;63499;53.232;7.492;2022-12-10T18:10:23;0.50;99.90
74934;DHT22;63499;53.232;7.492;2022-12-10T18:12:49;0.50;99.90
74934;DHT22;63499;53.232;7.492;2022-12-10T18:15:16;0.50;99.90
74934;DHT22;63499;53.232;7.492;2022-12-10T18:17:45;0.40;99.90
74934;DHT22;63499;53.232;7.492;2022-12-10T18:20:35;0.50;99.90
74934;DHT22;63499;53.232;7.492;2022-12-10T18:23:00;0.50;99.90
74934;DHT22;63499;53.232;7.492;2022-12-10T18:25:27;0.50;99.90
74934;DHT22;63499;53.232;7.492;2022-12-10T18:27:54;0.50;99.90
74934;DHT22;63499;53.232;7.492;2022-12-10T18:30:21;0.50;99.90
74934;DHT22;63499;53.232;7.492;2022-12-10T18:32:48;0.50;99.90
74934;DHT22;63499;53.232;7.492;2022-12-10T18:35:14;0.40;99.90
74934;DHT22;63499;53.232;7.492;2022-12-10T18:37:40;0.50;99.90
74934;DHT22;63499;53.232;7.492;2022-12-10T18:40:07;0.50;99.90
74934;DHT22;63499;53.232;7.492;2022-12-10T18:42:33;0.40;99.90
74934;DHT22;63499;53.232;7.492;2022-12-10T18:44:59;0.40;99.90
74934;DHT22;63499;53.232;7.492;2022-12-10T18:47:26;0.40;99.90
74934;DHT22;63499;53.232;7.492;2022-12-10T18:49:52;0.40;99.90
74934;DHT22;63499;53.232;7.492;2022-12-10T18:52:18;0.40;99.90
74934;DHT22;63499;53.232;7.492;2022-12-10T18:54:44;0.30;99.90
74934;DHT22;63499;53.232;7.492;2022-12-10T18:57:13;0.40;99.90
74934;DHT22;63499;53.232;7.492;2022-12-10T18:59:40;0.30;99.90
74934;DHT22;63499;53.232;7.492;2022-12-10T19:02:06;0.30;99.90
74934;DHT22;63499;53.232;7.492;2022-12-10T19:04:32;0.30;99.90
74934;DHT22;63499;53.232;7.492;2022-12-10T19:06:59;0.40;99.90
74934;DHT22;63499;53.232;7.492;2022-12-10T19:09:26;0.40;99.90
74934;DHT22;63499;53.232;7.492;2022-12-10T19:11:52;0.30;99.90
74934;DHT22;63499;53.232;7.492;2022-12-10T19:14:18;0.30;99.90
74934;DHT22;63499;53.232;7.492;2022-12-10T19:16:45;0.30;99.90
74934;DHT22;63499;53.232;7.492;2022-12-10T19:19:12;0.30;99.90
74934;DHT22;63499;53.232;7.492;2022-12-10T19:21:38;0.30;99.90
74934;DHT22;63499;53.232;7.492;2022-12-10T19:24:05;0.30;99.90
74934;DHT22;63499;53.232;7.492;2022-12-10T19:26:34;0.30;99.90
74934;DHT22;63499;53.232;7.492;2022-12-10T19:29:01;0.30;99.90
74934;DHT22;63499;53.232;7.492;2022-12-10T19:31:27;0.30;99.90
74934;DHT22;63499;53.232;7.492;2022-12-10T19:33:54;0.20;99.90
74934;DHT22;63499;53.232;7.492;2022-12-10T19:36:21;0.20;99.90